sensor_id;sensor_type;location;lat;lon;timestamp;pressure;altitude;pressure_sealevel;temperature
68745;BMP180;66104;45.456;11.064;2023-05-21T00:00:20;100321.20;;;18.30
68745;BMP180;66104;45.456;11.064;2023-05-21T00:02:58;100315.60;;;18.30
68745;BMP180;66104;45.456;11.064;2023-05-21T00:05:34;100315.00;;;18.30
68745;BMP180;66104;45.456;11.064;2023-05-21T00:08:12;100312.00;;;18.46
68745;BMP180;66104;45.456;11.064;2023-05-21T00:10:49;100302.80;;;18.56
68745;BMP180;66104;45.456;11.064;2023-05-21T00:13:26;100304.80;;;18.60
68745;BMP180;66104;45.456;11.064;2023-05-21T00:16:05;100305.40;;;18.70
68745;BMP180;66104;45.456;11.064;2023-05-21T00:18:44;100304.40;;;18.80
68745;BMP180;66104;45.456;11.064;2023-05-21T00:21:23;100299.80;;;18.90
68745;BMP180;66104;45.456;11.064;2023-05-21T00:23:59;100298.40;;;18.92
68745;BMP180;66104;45.456;11.064;2023-05-21T00:26:35;100294.20;;;19.00
68745;BMP180;66104;45.456;11.064;2023-05-21T00:29:12;100289.60;;;19.10
68745;BMP180;66104;45.456;11.064;2023-05-21T00:31:49;100289.40;;;19.20
68745;BMP180;66104;45.456;11.064;2023-05-21T00:34:26;100289.20;;;19.30
68745;BMP180;66104;45.456;11.064;2023-05-21T00:37:02;100284.40;;;19.50
68745;BMP180;66104;45.456;11.064;2023-05-21T00:39:40;100273.00;;;19.50
68745;BMP180;66104;45.456;11.064;2023-05-21T00:42:19;100279.40;;;19.50
68745;BMP180;66104;45.456;11.064;2023-05-21T00:45:00;100275.40;;;19.50
68745;BMP180;66104;45.456;11.064;2023-05-21T00:47:40;100269.80;;;19.50
68745;BMP180;66104;45.456;11.064;2023-05-21T00:50:18;100268.60;;;19.60
68745;BMP180;66104;45.456;11.064;2023-05-21T00:52:55;100263.80;;;19.70
68745;BMP180;66104;45.456;11.064;2023-05-21T00:55:32;100265.80;;;19.60
68745;BMP180;66104;45.456;11.064;2023-05-21T00:58:10;100267.60;;;19.50
68745;BMP180;66104;45.456;11.064;2023-05-21T01:00:48;100264.20;;;19.50
68745;BMP180;66104;45.456;11.064;2023-05-21T01:03:27;100262.40;;;19.40
68745;BMP180;66104;45.456;11.064;2023-05-21T01:06:04;100261.00;;;19.30
68745;BMP180;66104;45.456;11.064;2023-05-21T01:08:42;100262.60;;;19.30
68745;BMP180;66104;45.456;11.064;2023-05-21T01:11:30;100265.40;;;19.20
68745;BMP180;66104;45.456;11.064;2023-05-21T01:14:09;100263.40;;;19.10
68745;BMP180;66104;45.456;11.064;2023-05-21T01:16:49;100263.60;;;19.10
68745;BMP180;66104;45.456;11.064;2023-05-21T01:19:26;100262.80;;;19.00
68745;BMP180;66104;45.456;11.064;2023-05-21T01:22:08;100261.60;;;18.90
68745;BMP180;66104;45.456;11.064;2023-05-21T01:24:52;100270.00;;;18.90
68745;BMP180;66104;45.456;11.064;2023-05-21T01:27:28;100271.80;;;18.80
68745;BMP180;66104;45.456;11.064;2023-05-21T01:30:06;100271.80;;;18.70
68745;BMP180;66104;45.456;11.064;2023-05-21T01:32:51;100268.00;;;18.62
68745;BMP180;66104;45.456;11.064;2023-05-21T01:35:34;100270.00;;;18.52
68745;BMP180;66104;45.456;11.064;2023-05-21T01:38:20;100269.20;;;18.50
68745;BMP180;66104;45.456;11.064;2023-05-21T01:41:02;100272.40;;;18.40
68745;BMP180;66104;45.456;11.064;2023-05-21T01:43:42;100263.80;;;18.40
68745;BMP180;66104;45.456;11.064;2023-05-21T01:46:30;100265.20;;;18.30
68745;BMP180;66104;45.456;11.064;2023-05-21T01:49:09;100263.60;;;18.30
68745;BMP180;66104;45.456;11.064;2023-05-21T01:51:48;100261.40;;;18.20
68745;BMP180;66104;45.456;11.064;2023-05-21T01:54:24;100260.60;;;18.20
68745;BMP180;66104;45.456;11.064;2023-05-21T01:57:01;100260.00;;;18.20
68745;BMP180;66104;45.456;11.064;2023-05-21T01:59:40;100254.60;;;18.20
68745;BMP180;66104;45.456;11.064;2023-05-21T02:02:17;100254.60;;;18.18
68745;BMP180;66104;45.456;11.064;2023-05-21T02:04:54;100252.80;;;18.10
68745;BMP180;66104;45.456;11.064;2023-05-21T02:07:31;100249.40;;;18.10
68745;BMP180;66104;45.456;11.064;2023-05-21T02:10:12;100247.00;;;18.10
68745;BMP180;66104;45.456;11.064;2023-05-21T02:12:49;100246.60;;;18.10
68745;BMP180;66104;45.456;11.064;2023-05-21T02:15:26;100249.40;;;18.10
68745;BMP180;66104;45.456;11.064;2023-05-21T02:18:03;100244.80;;;18.00
68745;BMP180;66104;45.456;11.064;2023-05-21T02:20:42;100240.80;;;18.00
68745;BMP180;66104;45.456;11.064;2023-05-21T02:23:19;100242.40;;;18.00
68745;BMP180;66104;45.456;11.064;2023-05-21T02:25:57;100245.40;;;17.90
68745;BMP180;66104;45.456;11.064;2023-05-21T02:28:34;100236.40;;;17.90
68745;BMP180;66104;45.456;11.064;2023-05-21T02:31:13;100239.40;;;17.90
68745;BMP180;66104;45.456;11.064;2023-05-21T02:33:49;100235.40;;;17.90
68745;BMP180;66104;45.456;11.064;2023-05-21T02:36:26;100238.40;;;17.80
68745;BMP180;66104;45.456;11.064;2023-05-21T02:39:06;100226.00;;;17.80
68745;BMP180;66104;45.456;11.064;2023-05-21T02:41:44;100226.00;;;17.80
68745;BMP180;66104;45.456;11.064;2023-05-21T02:44:22;100224.40;;;17.80
68745;BMP180;66104;45.456;11.064;2023-05-21T02:46:58;100222.00;;;17.80
68745;BMP180;66104;45.456;11.064;2023-05-21T02:49:36;100213.20;;;17.80
68745;BMP180;66104;45.456;11.064;2023-05-21T02:52:13;100214.60;;;17.80
68745;BMP180;66104;45.456;11.064;2023-05-21T02:54:51;100211.00;;;17.80
68745;BMP180;66104;45.456;11.064;2023-05-21T02:57:29;100199.80;;;17.80
68745;BMP180;66104;45.456;11.064;2023-05-21T03:00:08;100200.60;;;17.80
68745;BMP180;66104;45.456;11.064;2023-05-21T03:02:47;100200.80;;;17.72
68745;BMP180;66104;45.456;11.064;2023-05-21T03:05:23;100199.60;;;17.70
68745;BMP180;66104;45.456;11.064;2023-05-21T03:07:59;100195.80;;;17.70
68745;BMP180;66104;45.456;11.064;2023-05-21T03:10:36;100200.60;;;17.68
68745;BMP180;66104;45.456;11.064;2023-05-21T03:13:13;100202.20;;;17.60
68745;BMP180;66104;45.456;11.064;2023-05-21T03:15:50;100194.40;;;17.50
68745;BMP180;66104;45.456;11.064;2023-05-21T03:18:29;100200.60;;;17.50
68745;BMP180;66104;45.456;11.064;2023-05-21T03:21:07;100204.60;;;17.50
68745;BMP180;66104;45.456;11.064;2023-05-21T03:23:46;100199.60;;;17.40
68745;BMP180;66104;45.456;11.064;2023-05-21T03:26:22;100206.00;;;17.40
68745;BMP180;66104;45.456;11.064;2023-05-21T03:29:00;100203.60;;;17.40
68745;BMP180;66104;45.456;11.064;2023-05-21T03:31:39;100189.80;;;17.40
68745;BMP180;66104;45.456;11.064;2023-05-21T03:34:18;100189.40;;;17.40
68745;BMP180;66104;45.456;11.064;2023-05-21T03:36:56;100186.60;;;17.40
68745;BMP180;66104;45.456;11.064;2023-05-21T03:39:34;100185.00;;;17.40
68745;BMP180;66104;45.456;11.064;2023-05-21T03:42:13;100179.80;;;17.40
68745;BMP180;66104;45.456;11.064;2023-05-21T03:44:54;100181.80;;;17.40
68745;BMP180;66104;45.456;11.064;2023-05-21T03:47:50;100184.00;;;17.40
68745;BMP180;66104;45.456;11.064;2023-05-21T03:50:27;100183.00;;;17.40
68745;BMP180;66104;45.456;11.064;2023-05-21T03:53:04;100176.00;;;17.46
68745;BMP180;66104;45.456;11.064;2023-05-21T03:55:40;100185.20;;;17.50
68745;BMP180;66104;45.456;11.064;2023-05-21T03:58:18;100179.80;;;17.50
68745;BMP180;66104;45.456;11.064;2023-05-21T04:00:54;100183.40;;;17.50
68745;BMP180;66104;45.456;11.064;2023-05-21T04:03:30;100182.40;;;17.60
68745;BMP180;66104;45.456;11.064;2023-05-21T04:06:11;100177.60;;;17.70
68745;BMP180;66104;45.456;11.064;2023-05-21T04:08:48;100178.80;;;17.90
68745;BMP180;66104;45.456;11.064;2023-05-21T04:11:26;100176.20;;;18.10
68745;BMP180;66104;45.456;11.064;2023-05-21T04:14:04;100184.20;;;18.20
68745;BMP180;66104;45.456;11.064;2023-05-21T04:16:41;100182.40;;;18.40
68745;BMP180;66104;45.456;11.064;2023-05-21T04:19:19;100188.20;;;18.80
68745;BMP180;66104;45.456;11.064;2023-05-21T04:21:57;100177.40;;;19.20
68745;BMP180;66104;45.456;11.064;2023-05-21T04:24:36;100185.20;;;19.50
68745;BMP180;66104;45.456;11.064;2023-05-21T04:27:21;100183.80;;;19.80
68745;BMP180;66104;45.456;11.064;2023-05-21T04:30:03;100183.80;;;20.02
68745;BMP180;66104;45.456;11.064;2023-05-21T04:32:41;100176.80;;;20.20
68745;BMP180;66104;45.456;11.064;2023-05-21T04:35:18;100180.80;;;20.30
68745;BMP180;66104;45.456;11.064;2023-05-21T04:37:55;100173.00;;;20.40
68745;BMP180;66104;45.456;11.064;2023-05-21T04:40:33;100173.40;;;20.50
68745;BMP180;66104;45.456;11.064;2023-05-21T04:43:10;100179.60;;;20.60
68745;BMP180;66104;45.456;11.064;2023-05-21T04:45:47;100175.60;;;20.70
68745;BMP180;66104;45.456;11.064;2023-05-21T04:48:24;100187.60;;;20.70
68745;BMP180;66104;45.456;11.064;2023-05-21T04:51:06;100179.20;;;20.80
68745;BMP180;66104;45.456;11.064;2023-05-21T04:53:46;100187.80;;;20.88
68745;BMP180;66104;45.456;11.064;2023-05-21T04:56:23;100184.60;;;20.90
68745;BMP180;66104;45.456;11.064;2023-05-21T04:59:04;100188.80;;;20.94
68745;BMP180;66104;45.456;11.064;2023-05-21T05:01:41;100184.20;;;21.00
68745;BMP180;66104;45.456;11.064;2023-05-21T05:04:18;100185.80;;;21.00
68745;BMP180;66104;45.456;11.064;2023-05-21T05:06:54;100185.20;;;21.00
68745;BMP180;66104;45.456;11.064;2023-05-21T05:09:31;100189.00;;;21.00
68745;BMP180;66104;45.456;11.064;2023-05-21T05:12:11;100188.80;;;21.00
68745;BMP180;66104;45.456;11.064;2023-05-21T05:14:50;100187.60;;;21.10
68745;BMP180;66104;45.456;11.064;2023-05-21T05:17:28;100183.00;;;21.10
68745;BMP180;66104;45.456;11.064;2023-05-21T05:20:08;100184.20;;;21.20
68745;BMP180;66104;45.456;11.064;2023-05-21T05:22:47;100188.80;;;21.24
68745;BMP180;66104;45.456;11.064;2023-05-21T05:25:23;100190.80;;;21.20
68745;BMP180;66104;45.456;11.064;2023-05-21T05:28:01;100193.20;;;21.20
68745;BMP180;66104;45.456;11.064;2023-05-21T05:30:38;100199.20;;;21.20
68745;BMP180;66104;45.456;11.064;2023-05-21T05:33:28;100197.60;;;21.10
68745;BMP180;66104;45.456;11.064;2023-05-21T05:36:06;100198.00;;;21.10
68745;BMP180;66104;45.456;11.064;2023-05-21T05:38:43;100203.00;;;21.10
68745;BMP180;66104;45.456;11.064;2023-05-21T05:41:19;100201.20;;;20.92
68745;BMP180;66104;45.456;11.064;2023-05-21T05:43:56;100208.60;;;20.80
68745;BMP180;66104;45.456;11.064;2023-05-21T05:46:36;100211.40;;;20.70
68745;BMP180;66104;45.456;11.064;2023-05-21T05:49:14;100203.60;;;20.54
68745;BMP180;66104;45.456;11.064;2023-05-21T05:51:51;100213.80;;;20.40
68745;BMP180;66104;45.456;11.064;2023-05-21T05:54:28;100210.40;;;20.30
68745;BMP180;66104;45.456;11.064;2023-05-21T05:57:05;100211.20;;;20.20
68745;BMP180;66104;45.456;11.064;2023-05-21T05:59:42;100216.80;;;20.10
68745;BMP180;66104;45.456;11.064;2023-05-21T06:02:21;100213.40;;;20.00
68745;BMP180;66104;45.456;11.064;2023-05-21T06:04:59;100225.20;;;19.90
68745;BMP180;66104;45.456;11.064;2023-05-21T06:07:35;100223.40;;;19.90
68745;BMP180;66104;45.456;11.064;2023-05-21T06:10:16;100224.80;;;19.80
68745;BMP180;66104;45.456;11.064;2023-05-21T06:12:53;100230.40;;;19.70
68745;BMP180;66104;45.456;11.064;2023-05-21T06:15:31;100221.00;;;19.70
68745;BMP180;66104;45.456;11.064;2023-05-21T06:18:08;100224.00;;;19.70
68745;BMP180;66104;45.456;11.064;2023-05-21T06:20:44;100214.60;;;19.60
68745;BMP180;66104;45.456;11.064;2023-05-21T06:23:22;100216.40;;;19.60
68745;BMP180;66104;45.456;11.064;2023-05-21T06:26:00;100215.20;;;19.60
68745;BMP180;66104;45.456;11.064;2023-05-21T06:28:37;100218.80;;;19.60
68745;BMP180;66104;45.456;11.064;2023-05-21T06:31:15;100208.80;;;19.62
68745;BMP180;66104;45.456;11.064;2023-05-21T06:33:52;100208.40;;;19.70
68745;BMP180;66104;45.456;11.064;2023-05-21T06:36:32;100207.40;;;19.90
68745;BMP180;66104;45.456;11.064;2023-05-21T06:39:10;100207.20;;;20.10
68745;BMP180;66104;45.456;11.064;2023-05-21T06:41:47;100214.40;;;20.30
68745;BMP180;66104;45.456;11.064;2023-05-21T06:44:46;100207.20;;;20.60
68745;BMP180;66104;45.456;11.064;2023-05-21T06:47:33;100219.40;;;20.80
68745;BMP180;66104;45.456;11.064;2023-05-21T06:50:15;100217.20;;;20.94
68745;BMP180;66104;45.456;11.064;2023-05-21T06:52:53;100214.40;;;21.30
68745;BMP180;66104;45.456;11.064;2023-05-21T06:55:29;100211.80;;;21.50
68745;BMP180;66104;45.456;11.064;2023-05-21T06:58:21;100215.20;;;21.62
68745;BMP180;66104;45.456;11.064;2023-05-21T07:00:58;100217.00;;;21.80
68745;BMP180;66104;45.456;11.064;2023-05-21T07:03:37;100213.80;;;21.90
68745;BMP180;66104;45.456;11.064;2023-05-21T07:06:15;100207.80;;;22.00
68745;BMP180;66104;45.456;11.064;2023-05-21T07:08:51;100206.20;;;22.20
68745;BMP180;66104;45.456;11.064;2023-05-21T07:11:28;100212.20;;;22.40
68745;BMP180;66104;45.456;11.064;2023-05-21T07:14:07;100216.80;;;22.54
68745;BMP180;66104;45.456;11.064;2023-05-21T07:16:43;100210.40;;;22.70
68745;BMP180;66104;45.456;11.064;2023-05-21T07:19:20;100209.00;;;22.90
68745;BMP180;66104;45.456;11.064;2023-05-21T07:21:56;100219.80;;;23.10
68745;BMP180;66104;45.456;11.064;2023-05-21T07:24:33;100219.60;;;23.30
68745;BMP180;66104;45.456;11.064;2023-05-21T07:27:11;100221.00;;;23.40
68745;BMP180;66104;45.456;11.064;2023-05-21T07:29:59;100217.20;;;23.50
68745;BMP180;66104;45.456;11.064;2023-05-21T07:32:35;100211.40;;;23.56
68745;BMP180;66104;45.456;11.064;2023-05-21T07:35:14;100210.00;;;23.60
68745;BMP180;66104;45.456;11.064;2023-05-21T07:37:52;100215.80;;;23.54
68745;BMP180;66104;45.456;11.064;2023-05-21T07:40:28;100213.60;;;23.50
68745;BMP180;66104;45.456;11.064;2023-05-21T07:43:07;100214.60;;;23.40
68745;BMP180;66104;45.456;11.064;2023-05-21T07:45:45;100221.20;;;23.40
68745;BMP180;66104;45.456;11.064;2023-05-21T07:48:22;100216.20;;;23.40
68745;BMP180;66104;45.456;11.064;2023-05-21T07:51:03;100216.40;;;23.46
68745;BMP180;66104;45.456;11.064;2023-05-21T07:53:40;100212.00;;;23.58
68745;BMP180;66104;45.456;11.064;2023-05-21T07:56:17;100221.00;;;23.70
68745;BMP180;66104;45.456;11.064;2023-05-21T07:58:55;100209.40;;;23.80
68745;BMP180;66104;45.456;11.064;2023-05-21T08:01:34;100211.80;;;23.90
68745;BMP180;66104;45.456;11.064;2023-05-21T08:04:12;100215.00;;;24.00
68745;BMP180;66104;45.456;11.064;2023-05-21T08:06:50;100214.60;;;24.00
68745;BMP180;66104;45.456;11.064;2023-05-21T08:09:27;100217.20;;;24.04
68745;BMP180;66104;45.456;11.064;2023-05-21T08:12:04;100220.60;;;24.10
68745;BMP180;66104;45.456;11.064;2023-05-21T08:14:41;100225.60;;;24.10
68745;BMP180;66104;45.456;11.064;2023-05-21T08:17:19;100220.60;;;24.10
68745;BMP180;66104;45.456;11.064;2023-05-21T08:19:56;100223.80;;;24.10
68745;BMP180;66104;45.456;11.064;2023-05-21T08:22:35;100237.20;;;24.18
68745;BMP180;66104;45.456;11.064;2023-05-21T08:25:15;100239.40;;;24.10
68745;BMP180;66104;45.456;11.064;2023-05-21T08:27:52;100236.00;;;24.10
68745;BMP180;66104;45.456;11.064;2023-05-21T08:30:29;100234.00;;;24.10
68745;BMP180;66104;45.456;11.064;2023-05-21T08:33:06;100226.60;;;24.10
68745;BMP180;66104;45.456;11.064;2023-05-21T08:35:44;100228.60;;;24.10
68745;BMP180;66104;45.456;11.064;2023-05-21T08:38:44;100228.80;;;24.04
68745;BMP180;66104;45.456;11.064;2023-05-21T08:41:29;100229.60;;;24.00
68745;BMP180;66104;45.456;11.064;2023-05-21T08:44:10;100230.80;;;24.00
68745;BMP180;66104;45.456;11.064;2023-05-21T08:46:50;100238.80;;;24.10
68745;BMP180;66104;45.456;11.064;2023-05-21T08:49:31;100238.80;;;24.10
68745;BMP180;66104;45.456;11.064;2023-05-21T08:52:12;100228.40;;;24.12
68745;BMP180;66104;45.456;11.064;2023-05-21T08:54:50;100228.60;;;24.20
68745;BMP180;66104;45.456;11.064;2023-05-21T08:57:29;100228.80;;;24.30
68745;BMP180;66104;45.456;11.064;2023-05-21T09:00:11;100227.80;;;24.40
68745;BMP180;66104;45.456;11.064;2023-05-21T09:02:50;100227.40;;;24.50
68745;BMP180;66104;45.456;11.064;2023-05-21T09:05:32;100224.00;;;24.60
68745;BMP180;66104;45.456;11.064;2023-05-21T09:08:15;100233.40;;;24.60
68745;BMP180;66104;45.456;11.064;2023-05-21T09:11:09;100215.20;;;24.70
68745;BMP180;66104;45.456;11.064;2023-05-21T09:13:51;100240.40;;;24.72
68745;BMP180;66104;45.456;11.064;2023-05-21T09:16:34;100226.60;;;24.80
68745;BMP180;66104;45.456;11.064;2023-05-21T09:19:11;100231.40;;;24.90
68745;BMP180;66104;45.456;11.064;2023-05-21T09:21:48;100238.80;;;24.90
68745;BMP180;66104;45.456;11.064;2023-05-21T09:24:31;100241.60;;;24.90
68745;BMP180;66104;45.456;11.064;2023-05-21T09:27:13;100218.60;;;24.86
68745;BMP180;66104;45.456;11.064;2023-05-21T09:29:52;100236.40;;;24.84
68745;BMP180;66104;45.456;11.064;2023-05-21T09:32:29;100245.00;;;24.80
68745;BMP180;66104;45.456;11.064;2023-05-21T09:35:13;100238.00;;;24.80
68745;BMP180;66104;45.456;11.064;2023-05-21T09:37:51;100235.80;;;24.80
68745;BMP180;66104;45.456;11.064;2023-05-21T09:40:29;100239.80;;;24.80
68745;BMP180;66104;45.456;11.064;2023-05-21T09:43:06;100248.80;;;24.86
68745;BMP180;66104;45.456;11.064;2023-05-21T09:45:54;100224.80;;;24.92
68745;BMP180;66104;45.456;11.064;2023-05-21T09:48:41;100237.00;;;25.00
68745;BMP180;66104;45.456;11.064;2023-05-21T09:51:21;100237.00;;;25.02
68745;BMP180;66104;45.456;11.064;2023-05-21T09:54:00;100237.60;;;25.10
68745;BMP180;66104;45.456;11.064;2023-05-21T09:56:38;100235.20;;;25.20
68745;BMP180;66104;45.456;11.064;2023-05-21T09:59:14;100237.40;;;25.20
68745;BMP180;66104;45.456;11.064;2023-05-21T10:01:54;100233.20;;;25.20
68745;BMP180;66104;45.456;11.064;2023-05-21T10:04:32;100243.20;;;25.20
68745;BMP180;66104;45.456;11.064;2023-05-21T10:07:11;100233.00;;;25.20
68745;BMP180;66104;45.456;11.064;2023-05-21T10:09:48;100235.80;;;25.30
68745;BMP180;66104;45.456;11.064;2023-05-21T10:12:26;100237.00;;;25.42
68745;BMP180;66104;45.456;11.064;2023-05-21T10:15:12;100239.60;;;25.50
68745;BMP180;66104;45.456;11.064;2023-05-21T10:17:49;100245.60;;;25.50
68745;BMP180;66104;45.456;11.064;2023-05-21T10:20:29;100238.20;;;25.50
68745;BMP180;66104;45.456;11.064;2023-05-21T10:23:06;100237.00;;;25.60
68745;BMP180;66104;45.456;11.064;2023-05-21T10:25:43;100227.60;;;25.66
68745;BMP180;66104;45.456;11.064;2023-05-21T10:28:21;100227.80;;;25.70
68745;BMP180;66104;45.456;11.064;2023-05-21T10:30:58;100227.60;;;25.80
68745;BMP180;66104;45.456;11.064;2023-05-21T10:33:36;100243.00;;;25.90
68745;BMP180;66104;45.456;11.064;2023-05-21T10:36:18;100223.00;;;26.00
68745;BMP180;66104;45.456;11.064;2023-05-21T10:38:55;100229.60;;;26.10
68745;BMP180;66104;45.456;11.064;2023-05-21T10:41:41;100229.00;;;26.16
68745;BMP180;66104;45.456;11.064;2023-05-21T10:44:32;100222.60;;;26.20
68745;BMP180;66104;45.456;11.064;2023-05-21T10:48:01;100225.60;;;26.20
68745;BMP180;66104;45.456;11.064;2023-05-21T10:54:45;100222.60;;;26.00
68745;BMP180;66104;45.456;11.064;2023-05-21T10:58:01;100221.20;;;26.00
68745;BMP180;66104;45.456;11.064;2023-05-21T11:00:46;100217.20;;;26.02
68745;BMP180;66104;45.456;11.064;2023-05-21T11:03:24;100227.20;;;26.12
68745;BMP180;66104;45.456;11.064;2023-05-21T11:06:04;100223.40;;;26.30
68745;BMP180;66104;45.456;11.064;2023-05-21T11:08:48;100225.80;;;26.30
68745;BMP180;66104;45.456;11.064;2023-05-21T11:12:01;100218.80;;;26.40
68745;BMP180;66104;45.456;11.064;2023-05-21T11:14:39;100220.20;;;26.38
68745;BMP180;66104;45.456;11.064;2023-05-21T11:17:38;100220.00;;;26.40
68745;BMP180;66104;45.456;11.064;2023-05-21T11:20:17;100217.60;;;26.40
68745;BMP180;66104;45.456;11.064;2023-05-21T11:22:59;100217.40;;;26.50
68745;BMP180;66104;45.456;11.064;2023-05-21T11:25:38;100221.40;;;26.50
68745;BMP180;66104;45.456;11.064;2023-05-21T11:28:15;100218.80;;;26.48
68745;BMP180;66104;45.456;11.064;2023-05-21T11:31:24;100197.80;;;26.44
68745;BMP180;66104;45.456;11.064;2023-05-21T11:34:22;100212.60;;;26.50
68745;BMP180;66104;45.456;11.064;2023-05-21T11:37:26;100206.00;;;26.58
68745;BMP180;66104;45.456;11.064;2023-05-21T11:40:25;100219.40;;;26.56
68745;BMP180;66104;45.456;11.064;2023-05-21T11:43:04;100205.20;;;26.50
68745;BMP180;66104;45.456;11.064;2023-05-21T11:45:41;100206.00;;;26.60
68745;BMP180;66104;45.456;11.064;2023-05-21T11:48:21;100190.40;;;26.66
68745;BMP180;66104;45.456;11.064;2023-05-21T11:51:01;100203.20;;;26.70
68745;BMP180;66104;45.456;11.064;2023-05-21T11:53:39;100204.80;;;26.80
68745;BMP180;66104;45.456;11.064;2023-05-21T11:56:18;100208.40;;;26.80
68745;BMP180;66104;45.456;11.064;2023-05-21T11:59:03;100206.20;;;26.80
68745;BMP180;66104;45.456;11.064;2023-05-21T12:01:40;100202.00;;;26.80
68745;BMP180;66104;45.456;11.064;2023-05-21T12:04:16;100197.80;;;26.90
68745;BMP180;66104;45.456;11.064;2023-05-21T12:06:54;100203.60;;;26.90
68745;BMP180;66104;45.456;11.064;2023-05-21T12:09:31;100204.80;;;26.90
68745;BMP180;66104;45.456;11.064;2023-05-21T12:12:17;100199.40;;;26.98
68745;BMP180;66104;45.456;11.064;2023-05-21T12:14:55;100191.80;;;27.00
68745;BMP180;66104;45.456;11.064;2023-05-21T12:17:33;100185.00;;;27.10
68745;BMP180;66104;45.456;11.064;2023-05-21T12:20:17;100189.20;;;27.20
68745;BMP180;66104;45.456;11.064;2023-05-21T12:22:54;100191.20;;;27.20
68745;BMP180;66104;45.456;11.064;2023-05-21T12:25:33;100191.20;;;27.24
68745;BMP180;66104;45.456;11.064;2023-05-21T12:28:10;100184.00;;;27.30
68745;BMP180;66104;45.456;11.064;2023-05-21T12:30:48;100181.80;;;27.30
68745;BMP180;66104;45.456;11.064;2023-05-21T12:33:34;100184.00;;;27.40
68745;BMP180;66104;45.456;11.064;2023-05-21T12:36:18;100179.80;;;27.40
68745;BMP180;66104;45.456;11.064;2023-05-21T12:38:59;100181.80;;;27.40
68745;BMP180;66104;45.456;11.064;2023-05-21T12:41:37;100190.20;;;27.40
68745;BMP180;66104;45.456;11.064;2023-05-21T12:44:16;100182.20;;;27.40
68745;BMP180;66104;45.456;11.064;2023-05-21T12:46:53;100186.80;;;27.50
68745;BMP180;66104;45.456;11.064;2023-05-21T12:49:41;100188.40;;;27.40
68745;BMP180;66104;45.456;11.064;2023-05-21T12:52:20;100194.60;;;27.30
68745;BMP180;66104;45.456;11.064;2023-05-21T12:54:57;100188.40;;;27.30
68745;BMP180;66104;45.456;11.064;2023-05-21T12:57:40;100187.80;;;27.30
68745;BMP180;66104;45.456;11.064;2023-05-21T13:00:24;100184.40;;;27.30
68745;BMP180;66104;45.456;11.064;2023-05-21T13:03:04;100182.80;;;27.40
68745;BMP180;66104;45.456;11.064;2023-05-21T13:05:43;100189.60;;;27.50
68745;BMP180;66104;45.456;11.064;2023-05-21T13:08:20;100181.00;;;27.50
68745;BMP180;66104;45.456;11.064;2023-05-21T13:10:57;100182.00;;;27.60
68745;BMP180;66104;45.456;11.064;2023-05-21T13:13:35;100184.00;;;27.54
68745;BMP180;66104;45.456;11.064;2023-05-21T13:16:14;100182.40;;;27.60
68745;BMP180;66104;45.456;11.064;2023-05-21T13:18:51;100189.40;;;27.50
68745;BMP180;66104;45.456;11.064;2023-05-21T13:21:29;100180.60;;;27.50
68745;BMP180;66104;45.456;11.064;2023-05-21T13:24:06;100183.00;;;27.36
68745;BMP180;66104;45.456;11.064;2023-05-21T13:26:45;100179.60;;;27.20
68745;BMP180;66104;45.456;11.064;2023-05-21T13:29:21;100178.80;;;27.20
68745;BMP180;66104;45.456;11.064;2023-05-21T13:31:57;100178.00;;;27.30
68745;BMP180;66104;45.456;11.064;2023-05-21T13:34:34;100175.00;;;27.40
68745;BMP180;66104;45.456;11.064;2023-05-21T13:37:11;100173.40;;;27.50
68745;BMP180;66104;45.456;11.064;2023-05-21T13:39:48;100185.00;;;27.58
68745;BMP180;66104;45.456;11.064;2023-05-21T13:42:25;100171.00;;;27.50
68745;BMP180;66104;45.456;11.064;2023-05-21T13:45:03;100179.40;;;27.50
68745;BMP180;66104;45.456;11.064;2023-05-21T13:47:41;100165.00;;;27.48
68745;BMP180;66104;45.456;11.064;2023-05-21T13:50:18;100180.40;;;27.30
68745;BMP180;66104;45.456;11.064;2023-05-21T13:52:55;100178.00;;;27.20
68745;BMP180;66104;45.456;11.064;2023-05-21T13:55:33;100188.60;;;27.30
68745;BMP180;66104;45.456;11.064;2023-05-21T13:58:10;100177.60;;;27.30
68745;BMP180;66104;45.456;11.064;2023-05-21T14:00:47;100175.80;;;27.40
68745;BMP180;66104;45.456;11.064;2023-05-21T14:03:24;100178.00;;;27.50
68745;BMP180;66104;45.456;11.064;2023-05-21T14:06:00;100176.60;;;27.60
68745;BMP180;66104;45.456;11.064;2023-05-21T14:08:37;100170.40;;;27.60
68745;BMP180;66104;45.456;11.064;2023-05-21T14:11:14;100177.40;;;27.60
68745;BMP180;66104;45.456;11.064;2023-05-21T14:13:52;100175.20;;;27.68
68745;BMP180;66104;45.456;11.064;2023-05-21T14:16:27;100171.60;;;27.70
68745;BMP180;66104;45.456;11.064;2023-05-21T14:19:04;100173.60;;;27.80
68745;BMP180;66104;45.456;11.064;2023-05-21T14:21:41;100169.60;;;27.70
68745;BMP180;66104;45.456;11.064;2023-05-21T14:24:17;100172.40;;;27.70
68745;BMP180;66104;45.456;11.064;2023-05-21T14:26:55;100163.00;;;27.70
68745;BMP180;66104;45.456;11.064;2023-05-21T14:29:32;100166.40;;;27.80
68745;BMP180;66104;45.456;11.064;2023-05-21T14:32:11;100168.20;;;27.80
68745;BMP180;66104;45.456;11.064;2023-05-21T14:34:49;100164.40;;;27.80
68745;BMP180;66104;45.456;11.064;2023-05-21T14:37:25;100166.20;;;27.86
68745;BMP180;66104;45.456;11.064;2023-05-21T14:40:03;100160.60;;;27.84
68745;BMP180;66104;45.456;11.064;2023-05-21T14:42:41;100157.60;;;27.90
68745;BMP180;66104;45.456;11.064;2023-05-21T14:45:19;100157.40;;;27.90
68745;BMP180;66104;45.456;11.064;2023-05-21T14:47:56;100154.00;;;28.00
68745;BMP180;66104;45.456;11.064;2023-05-21T14:50:33;100150.80;;;28.00
68745;BMP180;66104;45.456;11.064;2023-05-21T14:53:13;100147.80;;;28.00
68745;BMP180;66104;45.456;11.064;2023-05-21T14:55:50;100146.00;;;28.10